FredonyerEastRWIS Atmospheric Data: 01/14/2018 Summary  Detailed Graphs  Station List

  Temperature     Wind Precipitation Visibility
Timestamp Air Wet
Bulb
Dew-
point
24-hr
Max
24-hr
Min
Relative
Humidity
Atmospheric
Pressure
Avg
Speed
Avg
Dir
Spot
Speed
Spot
Dir
Max
Speed
Max
Dir
  Rate Situation Start End 1 hr 3 hr 6 hr 12 hr 24 hr   Situation
Date Time °F °F °F °F °F % in Hg mph ° mph ° mph ° Y/N in/hr text Date Time Date Time in in in in in mi text
01/14/2018 12:09 AM 28.04 25.34 19.40 48.74 25.16 69.0 Not Reported 0.00 N 0.00 N 1.57 N No x No Precipitation 01/13/2018 08:58 AM 01/13/2018 08:59 AM x x x x x Not Reported Not Reported
01/14/2018 12:23 AM 27.86 25.34 19.22 48.74 25.16 69.0 Not Reported 0.00 N 0.00 N 0.00 x No x No Precipitation 01/13/2018 08:58 AM 01/13/2018 08:59 AM x x x x x Not Reported Not Reported
01/14/2018 12:38 AM 27.50 24.98 18.86 48.74 25.16 69.0 Not Reported 0.00 N 0.00 N 0.00 x No x No Precipitation 01/13/2018 08:58 AM 01/13/2018 08:59 AM x x x x x Not Reported Not Reported
01/14/2018 12:53 AM 27.32 24.80 18.86 48.74 25.16 69.0 Not Reported 0.22 W 0.67 W 1.79 W No x No Precipitation 01/13/2018 08:58 AM 01/13/2018 08:59 AM x x x x x Not Reported Not Reported
01/14/2018 01:08 AM 27.32 24.80 18.86 48.74 25.16 69.0 Not Reported 0.00 SW 0.00 SW 1.12 SW No x No Precipitation 01/13/2018 08:58 AM 01/13/2018 08:59 AM x x x x x Not Reported Not Reported
01/14/2018 01:23 AM 27.32 24.80 18.86 48.74 25.16 69.0 Not Reported 0.67 SW 1.12 SW 1.34 SW No x No Precipitation 01/13/2018 08:58 AM 01/13/2018 08:59 AM x x x x x Not Reported Not Reported
01/14/2018 01:38 AM 27.32 24.80 18.86 48.74 25.16 69.0 Not Reported 1.12 NW 1.12 NW 1.57 NW No x No Precipitation 01/13/2018 08:58 AM 01/13/2018 08:59 AM x x x x x Not Reported Not Reported
01/14/2018 01:53 AM 27.32 24.80 18.86 48.74 25.16 69.0 Not Reported 0.00 NW 0.22 NW 0.00 x No x No Precipitation 01/13/2018 08:58 AM 01/13/2018 08:59 AM x x x x x Not Reported Not Reported
01/14/2018 02:08 AM 27.14 24.80 18.68 48.74 25.16 69.0 Not Reported 0.22 W 0.00 W 1.79 NW No x No Precipitation 01/13/2018 08:58 AM 01/13/2018 08:59 AM x x x x x Not Reported Not Reported
01/14/2018 02:23 AM 27.14 24.80 18.68 48.74 25.16 69.0 Not Reported 1.12 NW 2.01 NW 2.46 NW No x No Precipitation 01/13/2018 08:58 AM 01/13/2018 08:59 AM x x x x x Not Reported Not Reported
01/14/2018 02:38 AM 27.14 24.80 18.68 48.74 25.16 69.0 Not Reported 0.45 SW 0.00 W 1.34 SW No x No Precipitation 01/13/2018 08:58 AM 01/13/2018 08:59 AM x x x x x Not Reported Not Reported
01/14/2018 02:53 AM 27.32 24.80 18.86 48.74 25.16 69.0 Not Reported 1.12 NW 0.00 NW 2.46 NW x x Other 01/13/2018 08:58 AM 01/13/2018 08:59 AM x x x x x Not Reported Not Reported
01/14/2018 03:08 AM 27.32 24.80 18.86 48.74 25.16 69.0 Not Reported 0.00 SW 1.12 W 1.12 W x x Other 01/13/2018 08:58 AM 01/13/2018 08:59 AM x x x x x Not Reported Not Reported
01/14/2018 03:23 AM 27.32 24.80 18.86 48.74 25.16 69.0 Not Reported 0.00 NW 0.00 NW 1.12 NW x x Other 01/13/2018 08:58 AM 01/13/2018 08:59 AM x x x x x Not Reported Not Reported
01/14/2018 03:38 AM 27.86 25.34 19.22 48.74 25.16 69.0 Not Reported 0.00 NW 0.00 NW 1.79 NW x x Other 01/13/2018 08:58 AM 01/13/2018 08:59 AM x x x x x Not Reported Not Reported
01/14/2018 03:53 AM 27.86 25.34 19.22 48.74 25.16 69.0 Not Reported 0.00 N 0.00 N 1.12 N x x Other 01/13/2018 08:58 AM 01/13/2018 08:59 AM x x x x x Not Reported Not Reported
01/14/2018 04:08 AM 27.68 25.16 19.04 48.74 25.16 69.0 Not Reported 0.00 NW 0.00 NW 1.12 NW x x Other 01/13/2018 08:58 AM 01/13/2018 08:59 AM x x x x x Not Reported Not Reported
01/14/2018 04:23 AM 27.68 25.16 19.04 48.74 25.16 69.0 Not Reported 0.00 NW 0.00 NW 0.00 x x x Other 01/13/2018 08:58 AM 01/13/2018 08:59 AM x x x x x Not Reported Not Reported
01/14/2018 04:38 AM 27.68 25.16 19.04 48.74 25.16 69.0 Not Reported 0.00 N 0.00 N 1.57 NW x x Other 01/13/2018 08:58 AM 01/13/2018 08:59 AM x x x x x Not Reported Not Reported
01/14/2018 04:53 AM 27.50 24.98 19.04 48.74 25.16 69.0 Not Reported 0.89 NW 0.00 NW 1.34 NW x x Other 01/13/2018 08:58 AM 01/13/2018 08:59 AM x x x x x Not Reported Not Reported
01/14/2018 05:09 AM 27.50 24.98 19.04 48.74 25.16 69.0 Not Reported 0.89 NW 0.89 NW 2.24 NW x x Other 01/13/2018 08:58 AM 01/13/2018 08:59 AM x x x x x Not Reported Not Reported
01/14/2018 05:23 AM 27.32 24.80 18.86 48.74 25.16 69.0 Not Reported 0.00 NW 1.57 NW 1.34 NW x x Other 01/13/2018 08:58 AM 01/13/2018 08:59 AM x x x x x Not Reported Not Reported
01/14/2018 05:38 AM 27.32 24.80 18.86 48.74 25.16 69.0 Not Reported 0.45 NW 1.57 NW 1.57 NW x x Other 01/13/2018 08:58 AM 01/13/2018 08:59 AM x x x x x Not Reported Not Reported
01/14/2018 05:53 AM 27.14 24.80 18.68 48.74 25.16 69.0 Not Reported 1.12 NW 1.34 NW 1.57 NW x x Other 01/13/2018 08:58 AM 01/13/2018 08:59 AM x x x x x Not Reported Not Reported
01/14/2018 06:08 AM 27.14 24.80 18.68 48.74 25.16 69.0 Not Reported 0.00 NW 0.22 NW 1.79 NW x x Other 01/13/2018 08:58 AM 01/13/2018 08:59 AM x x x x x Not Reported Not Reported
01/14/2018 06:23 AM 27.14 24.62 18.50 48.74 25.16 69.0 Not Reported 0.45 NW 1.79 NW 1.79 NW x x Other 01/13/2018 08:58 AM 01/13/2018 08:59 AM x x x x x Not Reported Not Reported
01/14/2018 06:38 AM 27.14 24.80 18.50 48.74 25.16 69.0 Not Reported 0.22 NW 0.67 NW 1.57 NW x x Other 01/13/2018 08:58 AM 01/13/2018 08:59 AM x x x x x Not Reported Not Reported
01/14/2018 06:53 AM 26.96 24.44 18.32 48.74 25.16 69.0 Not Reported 0.45 NW 0.67 NW 1.34 NW x x Other 01/13/2018 08:58 AM 01/13/2018 08:59 AM x x x x x Not Reported Not Reported
01/14/2018 07:09 AM 26.96 24.44 18.32 48.74 25.70 69.0 Not Reported 0.00 NW 0.00 NW 1.34 NW x x Other 01/13/2018 08:58 AM 01/13/2018 08:59 AM x x x x x Not Reported Not Reported
01/14/2018 07:23 AM 26.42 24.08 17.96 48.74 25.70 69.0 Not Reported 0.22 NW 0.00 NW 1.12 NW x x Other 01/13/2018 08:58 AM 01/13/2018 08:59 AM x x x x x Not Reported Not Reported
01/14/2018 07:38 AM 26.42 24.08 17.96 48.74 25.70 69.0 Not Reported 0.89 NW 0.00 NW 1.57 NW x x Other 01/13/2018 08:58 AM 01/13/2018 08:59 AM x x x x x Not Reported Not Reported
01/14/2018 07:53 AM 26.78 24.08 18.14 48.74 25.70 69.0 Not Reported 0.67 NW 1.12 NW 1.57 NW x x Other 01/13/2018 08:58 AM 01/13/2018 08:59 AM x x x x x Not Reported Not Reported
01/14/2018 08:08 AM 26.96 24.44 18.32 48.74 26.24 69.0 Not Reported 0.00 NW 0.00 NW 0.67 NW x x Other 01/13/2018 08:58 AM 01/13/2018 08:59 AM x x x x x Not Reported Not Reported
01/14/2018 08:23 AM 27.68 25.16 19.04 48.74 26.24 69.0 Not Reported 0.00 NW 0.00 NW 0.00 x x x Other 01/13/2018 08:58 AM 01/13/2018 08:59 AM x x x x x Not Reported Not Reported
01/14/2018 08:38 AM 28.76 26.24 20.12 48.74 26.24 69.0 Not Reported 0.00 N 0.00 E 0.00 x x x Other 01/13/2018 08:58 AM 01/13/2018 08:59 AM x x x x x Not Reported Not Reported
01/14/2018 08:53 AM 30.02 27.32 21.38 48.74 26.24 69.0 Not Reported 0.00 N 0.00 N 0.00 x x x Other 01/13/2018 08:58 AM 01/13/2018 08:59 AM x x x x x Not Reported Not Reported
01/14/2018 09:08 AM 32.54 29.66 23.72 48.74 26.24 69.0 Not Reported 0.00 NE 0.00 NE 0.00 x x x Other 01/13/2018 08:58 AM 01/13/2018 08:59 AM x x x x x Not Reported Not Reported
01/14/2018 09:23 AM 34.16 31.10 25.16 48.74 26.24 69.0 Not Reported 0.00 N 0.00 N 0.00 x No x No Precipitation 01/14/2018 09:11 AM 01/14/2018 09:12 AM x x x x x Not Reported Not Reported
01/14/2018 09:38 AM 35.24 32.00 26.24 48.74 26.24 69.0 Not Reported 0.00 S 0.00 S 1.57 W No x No Precipitation 01/14/2018 09:11 AM 01/14/2018 09:12 AM x x x x x Not Reported Not Reported
01/14/2018 09:53 AM 37.22 33.98 28.22 48.74 26.24 69.0 Not Reported 1.57 W 0.22 SW 2.46 W No x No Precipitation 01/14/2018 09:11 AM 01/14/2018 09:12 AM x x x x x Not Reported Not Reported
01/14/2018 10:08 AM 38.30 34.88 29.12 48.74 26.24 68.0 Not Reported 0.00 E 0.00 SW 1.57 S No x No Precipitation 01/14/2018 09:11 AM 01/14/2018 09:12 AM x x x x x Not Reported Not Reported
01/14/2018 10:23 AM 38.84 34.70 27.68 48.74 26.24 64.0 Not Reported 1.79 E 1.12 NW 4.03 S No x No Precipitation 01/14/2018 09:11 AM 01/14/2018 09:12 AM x x x x x Not Reported Not Reported
01/14/2018 10:38 AM 40.28 34.88 24.26 48.74 26.24 52.0 Not Reported 1.34 SE 0.00 NW 7.16 NE No x No Precipitation 01/14/2018 09:11 AM 01/14/2018 09:12 AM x x x x x Not Reported Not Reported
01/14/2018 10:53 AM 42.26 35.60 20.84 48.74 26.24 42.0 Not Reported 2.01 NE 1.79 SE 4.25 S No x No Precipitation 01/14/2018 09:11 AM 01/14/2018 09:12 AM x x x x x Not Reported Not Reported
01/14/2018 11:08 AM 43.34 36.14 18.50 48.74 26.24 36.0 Not Reported 1.79 SE 2.46 SW 4.92 S No x No Precipitation 01/14/2018 09:11 AM 01/14/2018 09:12 AM x x x x x Not Reported Not Reported
01/14/2018 11:23 AM 43.70 36.32 17.96 48.74 26.24 35.0 Not Reported 1.34 NE 1.57 SE 5.37 SE No x No Precipitation 01/14/2018 09:11 AM 01/14/2018 09:12 AM x x x x x Not Reported Not Reported
01/14/2018 11:38 AM 43.70 36.32 17.42 48.74 26.24 34.0 Not Reported 3.36 S 6.04 SE 5.37 SE No x No Precipitation 01/14/2018 09:11 AM 01/14/2018 09:12 AM x x x x x Not Reported Not Reported
01/14/2018 11:53 AM 43.70 36.32 17.24 48.74 26.24 34.0 Not Reported 2.91 SE 1.12 SE 6.26 SE No x No Precipitation 01/14/2018 09:11 AM 01/14/2018 09:12 AM x x x x x Not Reported Not Reported
01/14/2018 12:08 PM 45.50 37.58 17.42 48.74 26.24 31.0 Not Reported 3.80 E 2.24 S 6.71 SE No x No Precipitation 01/14/2018 09:11 AM 01/14/2018 09:12 AM x x x x x Not Reported Not Reported
01/14/2018 12:23 PM 46.76 38.48 17.06 48.74 26.24 30.0 Not Reported 2.68 SE 2.24 SE 4.92 S No x No Precipitation 01/14/2018 09:11 AM 01/14/2018 09:12 AM x x x x x Not Reported Not Reported
01/14/2018 12:38 PM 47.84 39.20 16.88 48.74 26.24 28.0 Not Reported 1.12 E 4.25 NE 6.26 E No x No Precipitation 01/14/2018 09:11 AM 01/14/2018 09:12 AM x x x x x Not Reported Not Reported
01/14/2018 12:53 PM 46.76 38.30 16.70 48.74 26.24 29.0 Not Reported 2.91 SE 0.00 S 5.37 S No x No Precipitation 01/14/2018 09:11 AM 01/14/2018 09:12 AM x x x x x Not Reported Not Reported
01/14/2018 01:08 PM 46.58 38.30 16.34 48.56 26.24 29.0 Not Reported 3.13 S 4.25 S 5.14 S No x No Precipitation 01/14/2018 09:11 AM 01/14/2018 09:12 AM x x x x x Not Reported Not Reported
01/14/2018 01:23 PM 46.76 38.30 15.62 48.56 26.24 28.0 Not Reported 2.46 SE 3.13 E 5.37 E No x No Precipitation 01/14/2018 09:11 AM 01/14/2018 09:12 AM x x x x x Not Reported Not Reported
01/14/2018 01:38 PM 47.12 38.66 15.26 48.56 26.24 27.0 Not Reported 2.46 N 2.01 N 4.70 N No x No Precipitation 01/14/2018 09:11 AM 01/14/2018 09:12 AM x x x x x Not Reported Not Reported
01/14/2018 01:53 PM 46.76 38.48 15.62 48.56 26.24 28.0 Not Reported 0.22 SE 0.00 W 2.46 N No x No Precipitation 01/14/2018 09:11 AM 01/14/2018 09:12 AM x x x x x Not Reported Not Reported
01/14/2018 02:08 PM 46.76 38.48 15.80 48.56 26.24 28.0 Not Reported 0.89 N 0.67 S 4.25 NW No x No Precipitation 01/14/2018 09:11 AM 01/14/2018 09:12 AM x x x x x Not Reported Not Reported
01/14/2018 02:23 PM 48.02 39.20 15.98 48.56 26.24 27.0 Not Reported 1.79 E 0.00 E 4.92 S No x No Precipitation 01/14/2018 09:11 AM 01/14/2018 09:12 AM x x x x x Not Reported Not Reported
01/14/2018 02:38 PM 48.74 39.92 15.80 48.92 26.24 26.0 Not Reported 3.36 SE 2.24 SE 6.04 S No x No Precipitation 01/14/2018 09:11 AM 01/14/2018 09:12 AM x x x x x Not Reported Not Reported
01/14/2018 02:53 PM 47.84 39.20 15.44 48.92 26.24 27.0 Not Reported 2.24 E 2.68 SE 4.92 SE No x No Precipitation 01/14/2018 09:11 AM 01/14/2018 09:12 AM x x x x x Not Reported Not Reported
01/14/2018 03:08 PM 46.94 38.66 16.34 48.92 26.24 28.0 Not Reported 1.12 S 0.00 W 3.13 NE No x No Precipitation 01/14/2018 09:11 AM 01/14/2018 09:12 AM x x x x x Not Reported Not Reported
01/14/2018 03:23 PM 48.02 39.38 16.16 48.92 26.24 27.0 Not Reported 1.79 E 2.01 E 4.25 E No x No Precipitation 01/14/2018 09:11 AM 01/14/2018 09:12 AM x x x x x Not Reported Not Reported
01/14/2018 03:38 PM 47.84 39.02 15.62 48.92 26.24 27.0 Not Reported 1.12 E 0.89 SE 3.58 S No x No Precipitation 01/14/2018 09:11 AM 01/14/2018 09:12 AM x x x x x Not Reported Not Reported
01/14/2018 03:53 PM 46.76 38.48 15.80 48.92 26.24 28.0 Not Reported 0.89 N 1.34 NE 2.91 NE No x No Precipitation 01/14/2018 09:11 AM 01/14/2018 09:12 AM x x x x x Not Reported Not Reported
01/14/2018 04:08 PM 45.14 37.22 16.34 48.92 26.24 31.0 Not Reported 0.67 N 0.67 E 4.47 N No x No Precipitation 01/14/2018 09:11 AM 01/14/2018 09:12 AM x x x x x Not Reported Not Reported
01/14/2018 04:23 PM 43.88 36.32 17.78 48.92 26.24 34.0 Not Reported 1.12 NW 1.12 NE 2.24 N No x No Precipitation 01/14/2018 09:11 AM 01/14/2018 09:12 AM x x x x x Not Reported Not Reported
01/14/2018 04:38 PM 42.80 35.78 19.22 48.92 26.24 38.0 Not Reported 0.00 N 0.00 N 1.57 NW No x No Precipitation 01/14/2018 09:11 AM 01/14/2018 09:12 AM x x x x x Not Reported Not Reported
01/14/2018 04:53 PM 41.00 34.70 19.76 48.92 26.24 42.0 Not Reported 0.00 NW 0.00 NW 1.34 NE No x No Precipitation 01/14/2018 09:11 AM 01/14/2018 09:12 AM x x x x x Not Reported Not Reported
01/14/2018 05:08 PM 39.56 33.62 19.94 48.92 26.24 45.0 Not Reported 0.22 W 0.22 W 1.34 W No x No Precipitation 01/14/2018 09:11 AM 01/14/2018 09:12 AM x x x x x Not Reported Not Reported
01/14/2018 05:23 PM 38.48 32.90 20.48 48.92 26.24 47.0 Not Reported 0.00 W 0.00 SW 1.57 NW No x No Precipitation 01/14/2018 09:11 AM 01/14/2018 09:12 AM x x x x x Not Reported Not Reported
01/14/2018 05:38 PM 37.22 32.18 20.66 48.92 26.24 50.0 Not Reported 0.00 W 0.00 W 0.00 x No x No Precipitation 01/14/2018 09:11 AM 01/14/2018 09:12 AM x x x x x Not Reported Not Reported
01/14/2018 05:53 PM 35.96 31.10 20.48 48.92 26.24 53.0 Not Reported 0.00 W 0.00 NW 0.67 W No x No Precipitation 01/14/2018 09:11 AM 01/14/2018 09:12 AM x x x x x Not Reported Not Reported
01/14/2018 06:08 PM 35.42 31.10 21.20 48.92 26.24 55.0 Not Reported 0.00 SW 0.00 SW 1.34 W No x No Precipitation 01/14/2018 09:11 AM 01/14/2018 09:12 AM x x x x x Not Reported Not Reported
01/14/2018 06:23 PM 34.52 30.20 21.02 48.92 26.24 57.0 Not Reported 0.00 SW 0.00 NW 0.00 x No x No Precipitation 01/14/2018 09:11 AM 01/14/2018 09:12 AM x x x x x Not Reported Not Reported
01/14/2018 06:38 PM 33.44 29.66 20.66 48.92 26.24 59.0 Not Reported 0.00 NW 0.00 NW 0.00 x No x No Precipitation 01/14/2018 09:11 AM 01/14/2018 09:12 AM x x x x x Not Reported Not Reported
01/14/2018 06:53 PM 33.08 29.30 20.84 48.92 26.24 60.0 Not Reported 0.00 NW 0.00 NW 0.00 x No x No Precipitation 01/14/2018 09:11 AM 01/14/2018 09:12 AM x x x x x Not Reported Not Reported
01/14/2018 07:08 PM 32.72 29.12 21.02 48.92 26.24 61.0 Not Reported 0.89 NW 1.12 W 1.34 W No x No Precipitation 01/14/2018 09:11 AM 01/14/2018 09:12 AM x x x x x Not Reported Not Reported
01/14/2018 07:23 PM 32.18 28.76 20.84 48.92 26.24 62.0 Not Reported 0.00 W 0.00 W 0.22 W No x No Precipitation 01/14/2018 09:11 AM 01/14/2018 09:12 AM x x x x x Not Reported Not Reported
01/14/2018 07:38 PM 32.00 28.58 21.02 48.92 26.24 63.0 Not Reported 0.00 W 0.00 W 0.00 x No x No Precipitation 01/14/2018 09:11 AM 01/14/2018 09:12 AM x x x x x Not Reported Not Reported
01/14/2018 07:53 PM 32.00 28.76 21.38 48.92 26.24 64.0 Not Reported 0.22 W 0.22 W 0.67 W No x No Precipitation 01/14/2018 09:11 AM 01/14/2018 09:12 AM x x x x x Not Reported Not Reported
01/14/2018 08:08 PM 32.36 29.12 21.92 48.92 26.24 64.0 Not Reported 0.00 NW 0.00 NW 0.00 x No x No Precipitation 01/14/2018 09:11 AM 01/14/2018 09:12 AM x x x x x Not Reported Not Reported
01/14/2018 08:23 PM 32.90 29.48 22.46 48.92 26.24 65.0 Not Reported 0.00 NW 0.00 NW 0.00 x No x No Precipitation 01/14/2018 09:11 AM 01/14/2018 09:12 AM x x x x x Not Reported Not Reported
01/14/2018 08:38 PM 33.08 29.84 22.82 48.92 26.24 65.0 Not Reported 0.67 NW 0.22 NW 1.34 NW No x No Precipitation 01/14/2018 09:11 AM 01/14/2018 09:12 AM x x x x x Not Reported Not Reported
01/14/2018 08:53 PM 33.26 30.02 23.00 48.92 26.24 65.0 Not Reported 0.22 NW 0.00 NW 1.12 NW No x No Precipitation 01/14/2018 09:11 AM 01/14/2018 09:12 AM x x x x x Not Reported Not Reported
01/14/2018 09:08 PM 33.26 30.02 23.00 48.92 26.24 65.0 Not Reported 0.00 W 0.00 W 0.00 x No x No Precipitation 01/14/2018 09:11 AM 01/14/2018 09:12 AM x x x x x Not Reported Not Reported
01/14/2018 09:23 PM 33.44 30.20 23.36 48.92 26.24 65.0 Not Reported 1.12 NW 0.00 N 1.79 NW No x No Precipitation 01/14/2018 09:11 AM 01/14/2018 09:12 AM x x x x x Not Reported Not Reported
01/14/2018 09:38 PM 33.80 30.20 23.54 48.92 26.24 65.0 Not Reported 0.00 S 0.00 S 1.12 NW No x No Precipitation 01/14/2018 09:11 AM 01/14/2018 09:12 AM x x x x x Not Reported Not Reported
01/14/2018 09:53 PM 33.62 30.20 23.54 48.92 26.24 65.0 Not Reported 0.89 SW 2.24 NE 2.46 NE No x No Precipitation 01/14/2018 09:11 AM 01/14/2018 09:12 AM x x x x x Not Reported Not Reported
01/14/2018 10:08 PM 33.44 30.20 23.36 48.92 26.24 65.0 Not Reported 0.00 N 0.00 N 1.12 N No x No Precipitation 01/14/2018 09:11 AM 01/14/2018 09:12 AM x x x x x Not Reported Not Reported
01/14/2018 10:23 PM 33.26 30.02 23.18 48.92 26.24 65.0 Not Reported 0.67 NW 1.34 NW 1.57 NW No x No Precipitation 01/14/2018 09:11 AM 01/14/2018 09:12 AM x x x x x Not Reported Not Reported
01/14/2018 10:38 PM 33.08 29.84 23.18 48.92 26.24 66.0 Not Reported 0.00 SW 0.00 SW 0.00 x No x No Precipitation 01/14/2018 09:11 AM 01/14/2018 09:12 AM x x x x x Not Reported Not Reported
01/14/2018 10:53 PM 33.08 29.66 23.18 48.92 26.24 66.0 Not Reported 0.00 SW 0.00 W 0.00 x No x No Precipitation 01/14/2018 09:11 AM 01/14/2018 09:12 AM x x x x x Not Reported Not Reported
01/14/2018 11:08 PM 33.08 29.84 23.18 48.92 26.24 66.0 Not Reported 0.00 SW 0.00 SW 0.22 SW No x No Precipitation 01/14/2018 09:11 AM 01/14/2018 09:12 AM x x x x x Not Reported Not Reported
01/14/2018 11:23 PM 33.08 29.84 23.18 48.92 26.24 66.0 Not Reported 0.00 SW 0.00 SW 0.00 x No x No Precipitation 01/14/2018 09:11 AM 01/14/2018 09:12 AM x x x x x Not Reported Not Reported
01/14/2018 11:38 PM 33.08 29.84 23.18 48.92 26.24 66.0 Not Reported 0.00 W 0.00 W 0.22 W No x No Precipitation 01/14/2018 09:11 AM 01/14/2018 09:12 AM x x x x x Not Reported Not Reported
01/14/2018 11:53 PM 33.08 29.84 23.36 48.92 26.24 67.0 Not Reported 0.67 NE 0.00 NE 1.12 NE No x No Precipitation 01/14/2018 09:11 AM 01/14/2018 09:12 AM x x x x x Not Reported Not Reported